sensor_id;sensor_type;location;lat;lon;timestamp;pressure;altitude;pressure_sealevel;temperature
59339;BMP280;45117;50.960;5.500;2022-08-21T11:13:35;100843.03;;;28.63
59339;BMP280;45117;50.960;5.500;2022-08-21T11:16:09;100846.38;;;28.43
59339;BMP280;45117;50.960;5.500;2022-08-21T11:18:39;100844.28;;;29.20
59339;BMP280;45117;50.960;5.500;2022-08-21T11:21:27;100846.94;;;29.26
59339;BMP280;45117;50.960;5.500;2022-08-21T11:24:01;100841.88;;;29.64
59339;BMP280;45117;50.960;5.500;2022-08-21T11:26:34;100845.78;;;28.95
59339;BMP280;45117;50.960;5.500;2022-08-21T11:29:10;100853.81;;;30.27
59339;BMP280;45117;50.960;5.500;2022-08-21T11:31:47;100838.53;;;29.45
59339;BMP280;45117;50.960;5.500;2022-08-21T11:34:28;100845.81;;;30.57
59339;BMP280;45117;50.960;5.500;2022-08-21T11:37:00;100842.41;;;30.30
59339;BMP280;45117;50.960;5.500;2022-08-21T11:39:35;100836.84;;;30.10
59339;BMP280;45117;50.960;5.500;2022-08-21T11:42:11;100832.97;;;30.75
59339;BMP280;45117;50.960;5.500;2022-08-21T11:44:48;100836.53;;;29.79
59339;BMP280;45117;50.960;5.500;2022-08-21T11:47:22;100828.06;;;30.19
59339;BMP280;45117;50.960;5.500;2022-08-21T11:50:06;100832.28;;;30.33
59339;BMP280;45117;50.960;5.500;2022-08-21T11:52:38;100827.03;;;29.88
59339;BMP280;45117;50.960;5.500;2022-08-21T11:55:10;100831.75;;;29.80
59339;BMP280;45117;50.960;5.500;2022-08-21T11:57:42;100832.19;;;30.25
59339;BMP280;45117;50.960;5.500;2022-08-21T12:00:16;100841.41;;;29.26
59339;BMP280;45117;50.960;5.500;2022-08-21T12:02:49;100833.09;;;29.52
59339;BMP280;45117;50.960;5.500;2022-08-21T12:05:25;100819.06;;;29.11
59339;BMP280;45117;50.960;5.500;2022-08-21T12:08:02;100835.66;;;29.37
59339;BMP280;45117;50.960;5.500;2022-08-21T12:10:33;100839.78;;;30.25
59339;BMP280;45117;50.960;5.500;2022-08-21T12:13:07;100828.53;;;30.30
59339;BMP280;45117;50.960;5.500;2022-08-21T12:15:35;100833.44;;;30.37
59339;BMP280;45117;50.960;5.500;2022-08-21T12:18:05;100834.50;;;29.06
59339;BMP280;45117;50.960;5.500;2022-08-21T12:20:44;100839.16;;;28.40
59339;BMP280;45117;50.960;5.500;2022-08-21T12:23:29;100833.06;;;28.73
59339;BMP280;45117;50.960;5.500;2022-08-21T12:26:02;100847.78;;;29.08
59339;BMP280;45117;50.960;5.500;2022-08-21T12:28:30;100836.19;;;28.83
59339;BMP280;45117;50.960;5.500;2022-08-21T12:30:58;100847.41;;;29.64
59339;BMP280;45117;50.960;5.500;2022-08-21T12:33:27;100831.69;;;29.59
59339;BMP280;45117;50.960;5.500;2022-08-21T12:36:03;100831.81;;;29.40
59339;BMP280;45117;50.960;5.500;2022-08-21T12:38:34;100830.53;;;28.88
59339;BMP280;45117;50.960;5.500;2022-08-21T12:41:09;100811.84;;;28.94
59339;BMP280;45117;50.960;5.500;2022-08-21T12:43:40;100836.59;;;28.10
59339;BMP280;45117;50.960;5.500;2022-08-21T12:46:15;100837.34;;;29.01
59339;BMP280;45117;50.960;5.500;2022-08-21T12:48:47;100828.53;;;29.02
59339;BMP280;45117;50.960;5.500;2022-08-21T12:51:18;100826.25;;;28.74
59339;BMP280;45117;50.960;5.500;2022-08-21T12:53:48;100830.06;;;29.63
59339;BMP280;45117;50.960;5.500;2022-08-21T12:56:17;100828.84;;;28.99
59339;BMP280;45117;50.960;5.500;2022-08-21T12:58:46;100822.03;;;28.41
59339;BMP280;45117;50.960;5.500;2022-08-21T13:01:18;100824.13;;;28.80
59339;BMP280;45117;50.960;5.500;2022-08-21T13:03:45;100828.25;;;29.19
59339;BMP280;45117;50.960;5.500;2022-08-21T13:06:14;100826.69;;;28.65
59339;BMP280;45117;50.960;5.500;2022-08-21T13:08:42;100823.94;;;29.31
59339;BMP280;45117;50.960;5.500;2022-08-21T13:11:10;100819.81;;;29.11
59339;BMP280;45117;50.960;5.500;2022-08-21T13:13:40;100815.81;;;28.80
59339;BMP280;45117;50.960;5.500;2022-08-21T13:16:07;100822.59;;;28.98
59339;BMP280;45117;50.960;5.500;2022-08-21T13:18:55;100816.19;;;27.75
59339;BMP280;45117;50.960;5.500;2022-08-21T13:21:27;100823.16;;;27.82
59339;BMP280;45117;50.960;5.500;2022-08-21T13:23:54;100821.91;;;28.34
59339;BMP280;45117;50.960;5.500;2022-08-21T13:26:32;100822.00;;;28.09
59339;BMP280;45117;50.960;5.500;2022-08-21T13:29:06;100819.69;;;28.13
59339;BMP280;45117;50.960;5.500;2022-08-21T13:31:33;100810.41;;;28.62
59339;BMP280;45117;50.960;5.500;2022-08-21T13:34:01;100818.97;;;27.94
59339;BMP280;45117;50.960;5.500;2022-08-21T13:36:32;100816.03;;;28.24
59339;BMP280;45117;50.960;5.500;2022-08-21T13:39:02;100815.94;;;28.75
59339;BMP280;45117;50.960;5.500;2022-08-21T13:41:32;100812.59;;;28.18
59339;BMP280;45117;50.960;5.500;2022-08-21T13:44:03;100816.75;;;28.25
59339;BMP280;45117;50.960;5.500;2022-08-21T13:46:32;100814.16;;;28.77
59339;BMP280;45117;50.960;5.500;2022-08-21T13:49:03;100817.78;;;29.12
59339;BMP280;45117;50.960;5.500;2022-08-21T13:51:31;100814.56;;;29.34
59339;BMP280;45117;50.960;5.500;2022-08-21T13:53:58;100807.09;;;29.55
59339;BMP280;45117;50.960;5.500;2022-08-21T13:56:26;100815.56;;;29.37
59339;BMP280;45117;50.960;5.500;2022-08-21T13:58:55;100805.63;;;29.28
59339;BMP280;45117;50.960;5.500;2022-08-21T14:01:25;100812.50;;;29.74
59339;BMP280;45117;50.960;5.500;2022-08-21T14:03:54;100806.41;;;29.15
59339;BMP280;45117;50.960;5.500;2022-08-21T14:06:26;100813.31;;;29.22
59339;BMP280;45117;50.960;5.500;2022-08-21T14:08:55;100800.88;;;29.02
59339;BMP280;45117;50.960;5.500;2022-08-21T14:11:23;100806.50;;;29.10
59339;BMP280;45117;50.960;5.500;2022-08-21T14:13:56;100803.28;;;28.66
59339;BMP280;45117;50.960;5.500;2022-08-21T14:16:26;100802.44;;;28.98
59339;BMP280;45117;50.960;5.500;2022-08-21T14:19:08;100799.69;;;28.98
59339;BMP280;45117;50.960;5.500;2022-08-21T14:21:38;100790.53;;;28.89
59339;BMP280;45117;50.960;5.500;2022-08-21T14:24:08;100791.34;;;28.58
59339;BMP280;45117;50.960;5.500;2022-08-21T14:26:44;100787.41;;;28.21
59339;BMP280;45117;50.960;5.500;2022-08-21T14:29:13;100784.97;;;28.50
59339;BMP280;45117;50.960;5.500;2022-08-21T14:31:40;100792.44;;;28.04
59339;BMP280;45117;50.960;5.500;2022-08-21T14:34:08;100791.44;;;28.20
59339;BMP280;45117;50.960;5.500;2022-08-21T14:36:37;100790.56;;;28.12
59339;BMP280;45117;50.960;5.500;2022-08-21T14:39:04;100785.28;;;28.46
59339;BMP280;45117;50.960;5.500;2022-08-21T14:41:30;100783.00;;;27.81
59339;BMP280;45117;50.960;5.500;2022-08-21T14:43:57;100793.81;;;27.79
59339;BMP280;45117;50.960;5.500;2022-08-21T14:46:26;100788.03;;;27.58
59339;BMP280;45117;50.960;5.500;2022-08-21T14:48:53;100791.56;;;27.96
59339;BMP280;45117;50.960;5.500;2022-08-21T14:51:20;100792.38;;;27.54
59339;BMP280;45117;50.960;5.500;2022-08-21T14:53:48;100788.03;;;27.58
59339;BMP280;45117;50.960;5.500;2022-08-21T14:56:15;100787.34;;;27.09
59339;BMP280;45117;50.960;5.500;2022-08-21T14:58:44;100788.72;;;27.21
59339;BMP280;45117;50.960;5.500;2022-08-21T15:01:12;100792.97;;;27.46
59339;BMP280;45117;50.960;5.500;2022-08-21T15:03:40;100787.72;;;27.24
59339;BMP280;45117;50.960;5.500;2022-08-21T15:06:08;100785.66;;;27.49
59339;BMP280;45117;50.960;5.500;2022-08-21T15:08:35;100785.50;;;27.41
59339;BMP280;45117;50.960;5.500;2022-08-21T15:11:03;100786.25;;;27.79
59339;BMP280;45117;50.960;5.500;2022-08-21T15:13:31;100787.44;;;27.46
59339;BMP280;45117;50.960;5.500;2022-08-21T15:15:58;100784.59;;;27.33
59339;BMP280;45117;50.960;5.500;2022-08-21T15:18:26;100782.41;;;27.26
59339;BMP280;45117;50.960;5.500;2022-08-21T15:20:53;100784.44;;;27.26
59339;BMP280;45117;50.960;5.500;2022-08-21T15:23:20;100788.72;;;27.21
59339;BMP280;45117;50.960;5.500;2022-08-21T15:25:48;100783.38;;;27.10
59339;BMP280;45117;50.960;5.500;2022-08-21T15:28:17;100788.41;;;26.46
59339;BMP280;45117;50.960;5.500;2022-08-21T15:30:44;100786.38;;;26.52
59339;BMP280;45117;50.960;5.500;2022-08-21T15:33:11;100780.34;;;26.84
59339;BMP280;45117;50.960;5.500;2022-08-21T15:35:38;100787.66;;;26.51
59339;BMP280;45117;50.960;5.500;2022-08-21T15:38:05;100783.97;;;26.73
59339;BMP280;45117;50.960;5.500;2022-08-21T15:40:33;100782.63;;;26.80
59339;BMP280;45117;50.960;5.500;2022-08-21T15:43:01;100779.00;;;26.66
59339;BMP280;45117;50.960;5.500;2022-08-21T15:45:30;100796.13;;;26.53
59339;BMP280;45117;50.960;5.500;2022-08-21T15:47:58;100790.22;;;26.73
59339;BMP280;45117;50.960;5.500;2022-08-21T15:50:26;100793.00;;;26.32
59339;BMP280;45117;50.960;5.500;2022-08-21T15:52:54;100788.97;;;26.39
59339;BMP280;45117;50.960;5.500;2022-08-21T15:55:20;100793.66;;;26.50
59339;BMP280;45117;50.960;5.500;2022-08-21T15:57:49;100793.66;;;26.50
59339;BMP280;45117;50.960;5.500;2022-08-21T16:00:20;100793.31;;;26.29
59339;BMP280;45117;50.960;5.500;2022-08-21T16:02:52;100791.44;;;26.48
59339;BMP280;45117;50.960;5.500;2022-08-21T16:05:20;100794.72;;;26.41
59339;BMP280;45117;50.960;5.500;2022-08-21T16:07:48;100788.72;;;26.42
59339;BMP280;45117;50.960;5.500;2022-08-21T16:10:16;100783.56;;;26.63
59339;BMP280;45117;50.960;5.500;2022-08-21T16:12:46;100778.94;;;26.71
59339;BMP280;45117;50.960;5.500;2022-08-21T16:15:15;100776.44;;;26.73
59339;BMP280;45117;50.960;5.500;2022-08-21T16:17:43;100780.94;;;27.01
59339;BMP280;45117;50.960;5.500;2022-08-21T16:20:16;100776.66;;;26.75
59339;BMP280;45117;50.960;5.500;2022-08-21T16:22:44;100770.59;;;26.53
59339;BMP280;45117;50.960;5.500;2022-08-21T16:25:11;100772.38;;;26.80
59339;BMP280;45117;50.960;5.500;2022-08-21T16:27:40;100768.81;;;26.55
59339;BMP280;45117;50.960;5.500;2022-08-21T16:30:08;100762.53;;;26.85
59339;BMP280;45117;50.960;5.500;2022-08-21T16:32:35;100762.56;;;26.55
59339;BMP280;45117;50.960;5.500;2022-08-21T16:35:03;100762.00;;;26.32
59339;BMP280;45117;50.960;5.500;2022-08-21T16:37:31;100768.97;;;26.33
59339;BMP280;45117;50.960;5.500;2022-08-21T16:39:58;100759.03;;;25.89
59339;BMP280;45117;50.960;5.500;2022-08-21T16:42:25;100759.22;;;25.96
59339;BMP280;45117;50.960;5.500;2022-08-21T16:44:53;100765.00;;;25.87
59339;BMP280;45117;50.960;5.500;2022-08-21T16:47:20;100761.38;;;25.68
59339;BMP280;45117;50.960;5.500;2022-08-21T16:49:47;100766.94;;;25.51
59339;BMP280;45117;50.960;5.500;2022-08-21T16:52:15;100766.66;;;25.49
59339;BMP280;45117;50.960;5.500;2022-08-21T16:54:43;100761.00;;;25.30
59339;BMP280;45117;50.960;5.500;2022-08-21T16:57:10;100767.75;;;25.18
59339;BMP280;45117;50.960;5.500;2022-08-21T16:59:37;100762.53;;;25.09
59339;BMP280;45117;50.960;5.500;2022-08-21T17:02:04;100763.03;;;24.91
59339;BMP280;45117;50.960;5.500;2022-08-21T17:04:31;100766.56;;;24.97
59339;BMP280;45117;50.960;5.500;2022-08-21T17:06:58;100767.78;;;25.01
59339;BMP280;45117;50.960;5.500;2022-08-21T17:09:24;100766.56;;;24.97
59339;BMP280;45117;50.960;5.500;2022-08-21T17:11:52;100764.28;;;24.95
59339;BMP280;45117;50.960;5.500;2022-08-21T17:14:21;100761.06;;;24.80
59339;BMP280;45117;50.960;5.500;2022-08-21T17:16:51;100758.09;;;24.50
59339;BMP280;45117;50.960;5.500;2022-08-21T17:19:20;100760.59;;;24.54
59339;BMP280;45117;50.960;5.500;2022-08-21T17:21:46;100759.34;;;24.55
59339;BMP280;45117;50.960;5.500;2022-08-21T17:24:13;100762.81;;;24.44
59339;BMP280;45117;50.960;5.500;2022-08-21T17:26:40;100757.78;;;24.26
59339;BMP280;45117;50.960;5.500;2022-08-21T17:29:09;100756.03;;;24.23
59339;BMP280;45117;50.960;5.500;2022-08-21T17:31:40;100736.78;;;24.01
59339;BMP280;45117;50.960;5.500;2022-08-21T17:34:07;100762.75;;;24.05
59339;BMP280;45117;50.960;5.500;2022-08-21T17:36:34;100756.72;;;24.07
59339;BMP280;45117;50.960;5.500;2022-08-21T17:39:03;100755.97;;;24.01
59339;BMP280;45117;50.960;5.500;2022-08-21T17:41:29;100754.72;;;23.96
59339;BMP280;45117;50.960;5.500;2022-08-21T17:43:56;100758.63;;;23.78
59339;BMP280;45117;50.960;5.500;2022-08-21T17:46:27;100760.91;;;23.80
59339;BMP280;45117;50.960;5.500;2022-08-21T17:48:54;100756.59;;;23.73
59339;BMP280;45117;50.960;5.500;2022-08-21T17:51:20;100760.59;;;23.67
59339;BMP280;45117;50.960;5.500;2022-08-21T17:53:47;100750.81;;;23.60
59339;BMP280;45117;50.960;5.500;2022-08-21T17:56:15;100753.81;;;23.62
59339;BMP280;45117;50.960;5.500;2022-08-21T17:58:45;100746.81;;;23.55
59339;BMP280;45117;50.960;5.500;2022-08-21T18:01:12;100750.47;;;23.41
59339;BMP280;45117;50.960;5.500;2022-08-21T18:03:40;100755.94;;;23.36
59339;BMP280;45117;50.960;5.500;2022-08-21T18:06:07;100744.91;;;23.24
59339;BMP280;45117;50.960;5.500;2022-08-21T18:08:34;100742.41;;;23.21
59339;BMP280;45117;50.960;5.500;2022-08-21T18:11:00;100744.09;;;23.18
59339;BMP280;45117;50.960;5.500;2022-08-21T18:13:30;100744.47;;;23.00
59339;BMP280;45117;50.960;5.500;2022-08-21T18:15:58;100745.94;;;22.95
59339;BMP280;45117;50.960;5.500;2022-08-21T18:18:26;100748.13;;;22.91
59339;BMP280;45117;50.960;5.500;2022-08-21T18:20:55;100737.63;;;22.84
59339;BMP280;45117;50.960;5.500;2022-08-21T18:23:22;100744.81;;;22.82
59339;BMP280;45117;50.960;5.500;2022-08-21T18:25:53;100745.50;;;22.71
59339;BMP280;45117;50.960;5.500;2022-08-21T18:28:21;100748.41;;;22.62
59339;BMP280;45117;50.960;5.500;2022-08-21T18:30:48;100745.19;;;22.63
59339;BMP280;45117;50.960;5.500;2022-08-21T18:33:16;100742.38;;;22.58
59339;BMP280;45117;50.960;5.500;2022-08-21T18:35:43;100744.03;;;22.50
59339;BMP280;45117;50.960;5.500;2022-08-21T18:38:11;100753.16;;;22.41
59339;BMP280;45117;50.960;5.500;2022-08-21T18:40:43;100752.69;;;22.43
59339;BMP280;45117;50.960;5.500;2022-08-21T18:43:11;100752.09;;;22.33
59339;BMP280;45117;50.960;5.500;2022-08-21T18:45:38;100740.81;;;22.25
59339;BMP280;45117;50.960;5.500;2022-08-21T18:48:07;100753.69;;;22.19
59339;BMP280;45117;50.960;5.500;2022-08-21T18:50:37;100759.91;;;22.20
59339;BMP280;45117;50.960;5.500;2022-08-21T18:53:04;100759.38;;;22.16
59339;BMP280;45117;50.960;5.500;2022-08-21T18:55:33;100759.28;;;22.10
59339;BMP280;45117;50.960;5.500;2022-08-21T18:58:00;100768.19;;;22.05
59339;BMP280;45117;50.960;5.500;2022-08-21T19:00:29;100772.34;;;22.01
59339;BMP280;45117;50.960;5.500;2022-08-21T19:02:56;100774.09;;;21.98
59339;BMP280;45117;50.960;5.500;2022-08-21T19:05:26;100776.94;;;21.89
59339;BMP280;45117;50.960;5.500;2022-08-21T19:07:53;100777.06;;;21.80
59339;BMP280;45117;50.960;5.500;2022-08-21T19:10:21;100778.47;;;21.75
59339;BMP280;45117;50.960;5.500;2022-08-21T19:12:49;100777.88;;;21.66
59339;BMP280;45117;50.960;5.500;2022-08-21T20:17:57;100800.91;;;20.32
59339;BMP280;45117;50.960;5.500;2022-08-21T20:20:23;100805.03;;;20.27
59339;BMP280;45117;50.960;5.500;2022-08-21T20:22:50;100811.22;;;20.28
59339;BMP280;45117;50.960;5.500;2022-08-21T20:25:17;100806.69;;;20.25
59339;BMP280;45117;50.960;5.500;2022-08-21T20:27:44;100803.09;;;20.19
59339;BMP280;45117;50.960;5.500;2022-08-21T20:30:11;100798.56;;;20.16
59339;BMP280;45117;50.960;5.500;2022-08-21T20:32:38;100801.78;;;20.14
59339;BMP280;45117;50.960;5.500;2022-08-21T20:35:07;100804.38;;;20.09
59339;BMP280;45117;50.960;5.500;2022-08-21T20:37:34;100802.47;;;20.00
59339;BMP280;45117;50.960;5.500;2022-08-21T20:40:00;100801.41;;;19.97
59339;BMP280;45117;50.960;5.500;2022-08-21T20:42:28;100806.56;;;19.95
59339;BMP280;45117;50.960;5.500;2022-08-21T20:44:54;100802.59;;;19.96
59339;BMP280;45117;50.960;5.500;2022-08-21T20:47:21;100798.53;;;19.92
59339;BMP280;45117;50.960;5.500;2022-08-21T20:49:52;100796.94;;;19.85
59339;BMP280;45117;50.960;5.500;2022-08-21T20:52:23;100799.34;;;19.83
59339;BMP280;45117;50.960;5.500;2022-08-21T20:54:54;100796.94;;;19.85
59339;BMP280;45117;50.960;5.500;2022-08-21T20:57:28;100790.31;;;19.77
59339;BMP280;45117;50.960;5.500;2022-08-21T20:59:58;100796.81;;;19.71
59339;BMP280;45117;50.960;5.500;2022-08-21T21:02:41;100798.78;;;19.70
59339;BMP280;45117;50.960;5.500;2022-08-21T21:05:13;100797.44;;;19.65
59339;BMP280;45117;50.960;5.500;2022-08-21T21:07:50;100796.41;;;19.63
59339;BMP280;45117;50.960;5.500;2022-08-21T21:10:24;100802.81;;;19.60
59339;BMP280;45117;50.960;5.500;2022-08-21T21:12:54;100800.38;;;19.53
59339;BMP280;45117;50.960;5.500;2022-08-21T21:15:28;100793.88;;;19.50
59339;BMP280;45117;50.960;5.500;2022-08-21T21:18:01;100794.97;;;19.44
59339;BMP280;45117;50.960;5.500;2022-08-21T21:20:33;100795.72;;;19.44
59339;BMP280;45117;50.960;5.500;2022-08-21T21:23:09;100796.47;;;19.45
59339;BMP280;45117;50.960;5.500;2022-08-21T21:25:41;100799.66;;;19.43
59339;BMP280;45117;50.960;5.500;2022-08-21T21:28:13;100798.31;;;19.39
59339;BMP280;45117;50.960;5.500;2022-08-21T21:30:44;100797.09;;;19.40
59339;BMP280;45117;50.960;5.500;2022-08-21T21:33:11;100795.28;;;19.36
59339;BMP280;45117;50.960;5.500;2022-08-21T21:35:42;100805.88;;;19.34
59339;BMP280;45117;50.960;5.500;2022-08-21T21:38:16;100804.06;;;19.31
59339;BMP280;45117;50.960;5.500;2022-08-21T21:40:50;100799.09;;;19.30
59339;BMP280;45117;50.960;5.500;2022-08-21T21:43:28;100797.28;;;19.27
59339;BMP280;45117;50.960;5.500;2022-08-21T21:46:08;100807.41;;;19.26
59339;BMP280;45117;50.960;5.500;2022-08-21T21:48:47;100801.66;;;19.24
59339;BMP280;45117;50.960;5.500;2022-08-21T21:51:23;100809.25;;;19.20
59339;BMP280;45117;50.960;5.500;2022-08-21T21:53:58;100805.00;;;19.19
59339;BMP280;45117;50.960;5.500;2022-08-21T21:56:33;100803.19;;;19.16
59339;BMP280;45117;50.960;5.500;2022-08-21T21:59:25;100804.72;;;19.17
59339;BMP280;45117;50.960;5.500;2022-08-21T22:01:57;100805.03;;;19.10
59339;BMP280;45117;50.960;5.500;2022-08-21T22:04:31;100807.16;;;19.06
59339;BMP280;45117;50.960;5.500;2022-08-21T22:07:07;100803.06;;;19.01
59339;BMP280;45117;50.960;5.500;2022-08-21T22:09:42;100805.47;;;18.99
59339;BMP280;45117;50.960;5.500;2022-08-21T22:12:24;100797.16;;;18.94
59339;BMP280;45117;50.960;5.500;2022-08-21T22:14:53;100801.41;;;18.95
59339;BMP280;45117;50.960;5.500;2022-08-21T22:17:30;100800.19;;;18.87
59339;BMP280;45117;50.960;5.500;2022-08-21T22:19:59;100797.63;;;18.83
59339;BMP280;45117;50.960;5.500;2022-08-21T22:22:29;100799.28;;;18.81
59339;BMP280;45117;50.960;5.500;2022-08-21T22:25:02;100797.00;;;18.79
59339;BMP280;45117;50.960;5.500;2022-08-21T22:27:32;100792.50;;;18.76
59339;BMP280;45117;50.960;5.500;2022-08-21T22:30:02;100791.75;;;18.76
59339;BMP280;45117;50.960;5.500;2022-08-21T22:32:35;100792.66;;;18.72
59339;BMP280;45117;50.960;5.500;2022-08-21T22:35:07;100803.53;;;18.72
59339;BMP280;45117;50.960;5.500;2022-08-21T22:37:38;100802.94;;;18.68
59339;BMP280;45117;50.960;5.500;2022-08-21T22:40:08;100804.13;;;18.67
59339;BMP280;45117;50.960;5.500;2022-08-21T22:42:36;100804.72;;;18.62
59339;BMP280;45117;50.960;5.500;2022-08-21T22:45:05;100798.84;;;18.64
59339;BMP280;45117;50.960;5.500;2022-08-21T22:47:36;100805.66;;;18.59
59339;BMP280;45117;50.960;5.500;2022-08-21T22:50:16;100807.88;;;18.52
59339;BMP280;45117;50.960;5.500;2022-08-21T22:52:45;100799.88;;;18.48
59339;BMP280;45117;50.960;5.500;2022-08-21T22:55:22;100793.38;;;18.46
59339;BMP280;45117;50.960;5.500;2022-08-21T22:58:00;100798.06;;;18.45
59339;BMP280;45117;50.960;5.500;2022-08-21T23:00:48;100801.53;;;18.36
59339;BMP280;45117;50.960;5.500;2022-08-21T23:03:20;100802.88;;;18.32
59339;BMP280;45117;50.960;5.500;2022-08-21T23:05:47;100794.56;;;18.26
59339;BMP280;45117;50.960;5.500;2022-08-21T23:08:22;100793.03;;;18.25
59339;BMP280;45117;50.960;5.500;2022-08-21T23:10:56;100790.72;;;18.15
59339;BMP280;45117;50.960;5.500;2022-08-21T23:13:24;100792.84;;;18.10
59339;BMP280;45117;50.960;5.500;2022-08-21T23:16:00;100787.13;;;18.08
59339;BMP280;45117;50.960;5.500;2022-08-21T23:18:36;100785.78;;;18.13
59339;BMP280;45117;50.960;5.500;2022-08-21T23:21:13;100782.72;;;18.11
59339;BMP280;45117;50.960;5.500;2022-08-21T23:24:02;100783.47;;;18.12
59339;BMP280;45117;50.960;5.500;2022-08-21T23:26:38;100780.34;;;18.13
59339;BMP280;45117;50.960;5.500;2022-08-21T23:29:16;100790.13;;;18.10
59339;BMP280;45117;50.960;5.500;2022-08-21T23:31:49;100785.44;;;18.11
59339;BMP280;45117;50.960;5.500;2022-08-21T23:34:23;100783.19;;;18.09
59339;BMP280;45117;50.960;5.500;2022-08-21T23:37:14;100775.78;;;18.10
59339;BMP280;45117;50.960;5.500;2022-08-21T23:40:10;100779.72;;;18.09
59339;BMP280;45117;50.960;5.500;2022-08-21T23:42:51;100777.75;;;18.09
59339;BMP280;45117;50.960;5.500;2022-08-21T23:45:25;100777.28;;;18.11
59339;BMP280;45117;50.960;5.500;2022-08-21T23:48:02;100776.25;;;18.08
59339;BMP280;45117;50.960;5.500;2022-08-21T23:50:36;100772.00;;;18.07
59339;BMP280;45117;50.960;5.500;2022-08-21T23:53:12;100774.09;;;18.03
59339;BMP280;45117;50.960;5.500;2022-08-21T23:55:49;100771.38;;;18.03
59339;BMP280;45117;50.960;5.500;2022-08-21T23:58:27;100768.22;;;18.05
